createdAt,value
2023-05-20T00:01:04.323Z,3.10
2023-05-20T00:03:33.361Z,2.85
2023-05-20T00:06:01.019Z,2.42
2023-05-20T00:08:28.608Z,2.95
2023-05-20T00:10:56.273Z,2.80
2023-05-20T00:13:24.631Z,2.58
2023-05-20T00:15:54.160Z,2.70
2023-05-20T00:18:21.875Z,2.53
2023-05-20T00:20:50.879Z,2.45
2023-05-20T00:23:18.596Z,2.17
2023-05-20T00:25:46.213Z,2.30
2023-05-20T00:28:13.928Z,2.83
2023-05-20T00:30:42.120Z,2.65
2023-05-20T00:33:09.804Z,2.42
2023-05-20T00:35:37.409Z,2.10
2023-05-20T00:38:06.524Z,2.33
2023-05-20T00:40:34.140Z,2.58
2023-05-20T00:43:01.782Z,3.17
2023-05-20T00:45:30.012Z,2.58
2023-05-20T00:48:01.521Z,2.80
2023-05-20T00:50:29.736Z,2.97
2023-05-20T00:52:58.665Z,2.80
2023-05-20T00:55:27.729Z,3.00
2023-05-20T00:57:55.989Z,2.72
2023-05-20T01:00:24.314Z,2.70
2023-05-20T01:02:52.187Z,2.65
2023-05-20T01:05:19.947Z,2.95
2023-05-20T01:07:47.728Z,2.85
2023-05-20T01:10:15.337Z,3.13
2023-05-20T01:12:49.287Z,3.00
2023-05-20T01:15:17.794Z,2.70
2023-05-20T01:17:47.967Z,2.83
2023-05-20T01:20:16.556Z,2.83
2023-05-20T01:22:54.627Z,2.90
2023-05-20T01:25:22.828Z,2.92
2023-05-20T01:27:52.633Z,3.20
2023-05-20T01:30:21.091Z,3.00
2023-05-20T01:32:51.459Z,2.78
2023-05-20T01:35:20.638Z,3.42
2023-05-20T01:37:51.470Z,3.35
2023-05-20T01:40:19.865Z,2.58
2023-05-20T01:42:52.807Z,2.75
2023-05-20T01:45:20.807Z,2.92
2023-05-20T01:47:48.653Z,2.70
2023-05-20T01:50:17.361Z,2.53
2023-05-20T01:52:45.032Z,2.65
2023-05-20T01:55:13.983Z,3.30
2023-05-20T01:57:41.709Z,2.67
2023-05-20T02:00:10.616Z,2.72
2023-05-20T02:02:45.987Z,3.42
2023-05-20T02:05:14.464Z,2.70
2023-05-20T02:07:44.010Z,2.47
2023-05-20T02:10:12.154Z,2.90
2023-05-20T02:12:41.181Z,2.38
2023-05-20T02:15:09.852Z,2.70
2023-05-20T02:17:37.885Z,2.47
2023-05-20T02:20:09.170Z,2.42
2023-05-20T02:22:36.813Z,2.70
2023-05-20T02:25:05.016Z,3.45
2023-05-20T02:27:32.682Z,3.33
2023-05-20T02:30:02.187Z,2.95
2023-05-20T02:32:29.927Z,2.70
2023-05-20T02:34:57.613Z,2.40
2023-05-20T02:37:25.214Z,2.20
2023-05-20T02:39:52.875Z,2.47
2023-05-20T02:42:20.602Z,2.50
2023-05-20T02:44:48.306Z,2.47
2023-05-20T02:47:17.294Z,2.10
2023-05-20T02:49:45.044Z,2.17
2023-05-20T02:52:12.701Z,2.65
2023-05-20T02:54:41.357Z,2.55
2023-05-20T02:57:09.269Z,2.80
2023-05-20T02:59:37.260Z,2.40
2023-05-20T03:02:05.076Z,2.60
2023-05-20T03:04:34.258Z,1.98
2023-05-20T03:07:01.868Z,2.33
2023-05-20T03:09:30.454Z,2.53
2023-05-20T03:11:58.072Z,2.25
2023-05-20T03:14:25.720Z,2.00
2023-05-20T03:16:55.316Z,2.00
2023-05-20T03:19:23.687Z,2.28
2023-05-20T03:21:52.798Z,2.53
2023-05-20T03:24:20.522Z,2.47
2023-05-20T03:26:48.684Z,2.65
2023-05-20T03:29:17.849Z,2.30
2023-05-20T03:31:46.316Z,2.50
2023-05-20T03:34:14.101Z,2.15
2023-05-20T03:36:42.342Z,2.13
2023-05-20T03:39:11.500Z,2.08
2023-05-20T03:41:39.161Z,2.42
2023-05-20T03:44:06.853Z,1.92
2023-05-20T03:46:34.632Z,2.60
2023-05-20T03:49:04.034Z,2.22
2023-05-20T03:51:32.119Z,2.70
2023-05-20T03:54:06.316Z,1.77
2023-05-20T03:56:36.344Z,2.72
2023-05-20T03:59:04.230Z,2.15
2023-05-20T04:01:32.074Z,2.47
2023-05-20T04:03:59.781Z,2.30
2023-05-20T04:06:27.540Z,2.40
2023-05-20T04:08:57.095Z,2.83
2023-05-20T04:11:24.774Z,2.20
2023-05-20T04:13:54.761Z,2.45
2023-05-20T04:16:22.664Z,2.22
2023-05-20T04:18:50.782Z,2.08
2023-05-20T04:21:18.898Z,2.80
2023-05-20T04:23:47.023Z,2.65
2023-05-20T04:26:14.668Z,3.15
2023-05-20T04:28:42.834Z,2.80
2023-05-20T04:31:12.514Z,2.15
2023-05-20T04:33:40.462Z,2.72
2023-05-20T04:36:16.350Z,2.78
2023-05-20T04:38:44.574Z,2.63
2023-05-20T04:41:12.375Z,2.50
2023-05-20T04:43:40.214Z,2.13
2023-05-20T04:46:08.792Z,2.70
2023-05-20T04:48:38.386Z,2.28
2023-05-20T04:51:05.963Z,2.10
2023-05-20T04:53:35.963Z,2.03
2023-05-20T04:56:03.945Z,2.17
2023-05-20T04:58:31.745Z,2.40
2023-05-20T05:01:01.457Z,2.53
2023-05-20T05:03:29.231Z,2.10
2023-05-20T05:05:59.839Z,2.20
2023-05-20T05:08:27.697Z,2.35
2023-05-20T05:10:55.647Z,2.28
2023-05-20T05:13:23.430Z,2.33
2023-05-20T05:15:59.482Z,2.45
2023-05-20T05:18:28.636Z,2.30
2023-05-20T05:21:05.479Z,2.42
2023-05-20T05:23:35.343Z,2.95
2023-05-20T05:26:02.960Z,2.55
2023-05-20T05:28:30.633Z,2.63
2023-05-20T05:30:59.078Z,2.80
2023-05-20T05:33:27.366Z,2.67
2023-05-20T05:35:58.806Z,2.70
2023-05-20T05:38:27.776Z,2.53
2023-05-20T05:40:55.403Z,2.47
2023-05-20T05:43:23.776Z,2.47
2023-05-20T05:45:52.500Z,2.22
2023-05-20T05:48:20.653Z,2.45
2023-05-20T05:50:48.777Z,2.17
2023-05-20T05:53:18.057Z,2.53
2023-05-20T05:55:50.355Z,2.78
2023-05-20T05:58:18.806Z,2.30
2023-05-20T06:00:46.702Z,2.20
2023-05-20T06:03:15.148Z,2.13
2023-05-20T06:05:46.328Z,2.65
2023-05-20T06:08:14.072Z,2.63
2023-05-20T06:10:41.838Z,2.22
2023-05-20T06:13:10.901Z,2.40
2023-05-20T06:15:38.495Z,2.28
2023-05-20T06:18:06.251Z,2.65
2023-05-20T06:20:34.497Z,2.50
2023-05-20T06:23:02.747Z,2.83
2023-05-20T06:25:39.057Z,2.25
2023-05-20T06:28:08.234Z,3.97
2023-05-20T06:30:37.527Z,3.25
2023-05-20T06:33:05.406Z,3.13
2023-05-20T06:35:34.776Z,3.40
2023-05-20T06:38:03.810Z,2.67
2023-05-20T06:40:31.704Z,3.80
2023-05-20T06:42:59.408Z,3.10
2023-05-20T06:45:52.336Z,2.97
2023-05-20T06:48:28.375Z,2.60
2023-05-20T06:50:56.885Z,2.97
2023-05-20T06:53:24.444Z,2.80
2023-05-20T06:55:55.616Z,2.97
2023-05-20T06:58:24.509Z,3.10
2023-05-20T07:00:56.968Z,2.95
2023-05-20T07:03:25.798Z,3.05
2023-05-20T07:05:54.122Z,2.72
2023-05-20T07:08:22.344Z,3.55
2023-05-20T07:10:50.152Z,2.80
2023-05-20T07:13:23.840Z,3.05
2023-05-20T07:15:52.281Z,2.88
2023-05-20T07:18:21.591Z,2.88
2023-05-20T07:23:41.088Z,3.17
2023-05-20T07:26:08.795Z,2.88
2023-05-20T07:28:36.598Z,3.22
2023-05-20T07:31:04.651Z,2.80
2023-05-20T07:33:36.086Z,3.17
2023-05-20T07:36:04.622Z,4.97
2023-05-20T07:38:33.241Z,3.47
2023-05-20T07:41:04.339Z,3.35
2023-05-20T07:43:32.744Z,3.38
2023-05-20T07:46:01.076Z,3.17
2023-05-20T07:48:28.713Z,3.08
2023-05-20T07:50:59.210Z,2.83
2023-05-20T07:53:27.993Z,2.45
2023-05-20T07:55:56.260Z,3.10
2023-05-20T07:58:24.964Z,5.03
2023-05-20T08:00:52.672Z,3.13
2023-05-20T08:03:22.195Z,3.50
2023-05-20T08:05:58.130Z,2.80
2023-05-20T08:08:26.824Z,3.30
2023-05-20T08:10:59.542Z,3.20
2023-05-20T08:13:27.962Z,2.85
2023-05-20T08:15:56.034Z,3.03
2023-05-20T08:18:25.271Z,3.30
2023-05-20T08:20:53.014Z,3.70
2023-05-20T08:23:22.354Z,3.00
2023-05-20T08:25:50.682Z,3.65
2023-05-20T08:28:21.975Z,3.65
2023-05-20T08:30:49.739Z,3.83
2023-05-20T08:33:19.358Z,3.38
2023-05-20T08:35:47.002Z,3.47
2023-05-20T08:38:15.134Z,3.20
2023-05-20T08:40:44.243Z,3.60
2023-05-20T08:43:12.029Z,3.38
2023-05-20T08:45:40.031Z,4.43
2023-05-20T08:48:12.692Z,3.53
2023-05-20T08:50:40.628Z,3.40
2023-05-20T08:53:08.699Z,3.60
2023-05-20T08:55:49.663Z,3.53
2023-05-20T08:58:19.337Z,3.58
2023-05-20T09:00:47.041Z,3.65
2023-05-20T09:03:14.675Z,3.40
2023-05-20T09:05:42.352Z,3.75
2023-05-20T09:08:11.786Z,3.35
2023-05-20T09:10:40.316Z,3.60
2023-05-20T09:13:09.526Z,3.28
2023-05-20T09:15:39.024Z,3.10
2023-05-20T09:18:08.838Z,3.58
2023-05-20T09:20:38.085Z,3.72
2023-05-20T09:23:07.517Z,7.50
2023-05-20T09:25:37.420Z,3.95
2023-05-20T09:28:05.931Z,3.30
2023-05-20T09:30:34.257Z,3.50
2023-05-20T09:33:05.962Z,3.20
2023-05-20T09:35:36.948Z,3.40
2023-05-20T09:38:06.947Z,3.70
2023-05-20T09:40:37.571Z,3.45
2023-05-20T09:43:07.123Z,3.40
2023-05-20T09:45:35.563Z,3.15
2023-05-20T09:48:06.042Z,3.13
2023-05-20T09:50:33.882Z,3.45
2023-05-20T09:53:04.899Z,3.67
2023-05-20T09:55:33.013Z,3.25
2023-05-20T09:58:03.901Z,2.97
2023-05-20T10:00:31.851Z,3.47
2023-05-20T10:03:01.026Z,3.30
2023-05-20T10:05:33.328Z,3.25
2023-05-20T10:08:29.177Z,3.65
2023-05-20T10:11:05.861Z,3.40
2023-05-20T10:14:00.995Z,3.47
2023-05-20T10:16:35.631Z,3.25
2023-05-20T10:19:18.191Z,3.15
2023-05-20T10:21:57.966Z,5.57
2023-05-20T10:24:31.823Z,4.22
2023-05-20T10:27:00.170Z,3.35
2023-05-20T10:29:27.879Z,3.38
2023-05-20T10:31:56.127Z,3.33
2023-05-20T10:34:24.399Z,3.22
2023-05-20T10:37:02.525Z,3.20
2023-05-20T10:39:32.815Z,2.80
2023-05-20T10:42:07.298Z,3.33
2023-05-20T10:44:44.805Z,3.20
2023-05-20T10:49:46.307Z,2.90
2023-05-20T10:52:16.082Z,3.17
2023-05-20T10:54:51.508Z,2.63
2023-05-20T10:57:19.474Z,2.83
2023-05-20T10:59:47.701Z,3.10
2023-05-20T11:02:17.278Z,3.40
2023-05-20T11:04:45.754Z,3.28
2023-05-20T11:07:25.259Z,3.17
2023-05-20T11:09:52.981Z,2.83
2023-05-20T11:12:22.701Z,2.90
2023-05-20T11:14:51.450Z,2.80
2023-05-20T11:17:20.318Z,3.17
2023-05-20T11:19:48.827Z,3.72
2023-05-20T11:22:17.914Z,3.70
2023-05-20T11:24:45.737Z,3.40
2023-05-20T11:27:13.422Z,3.30
2023-05-20T11:29:41.445Z,3.30
2023-05-20T11:32:09.214Z,3.13
2023-05-20T11:34:38.151Z,3.28
2023-05-20T11:37:08.571Z,3.22
2023-05-20T11:39:38.409Z,2.95
2023-05-20T11:42:06.902Z,3.25
2023-05-20T11:44:34.887Z,3.85
2023-05-20T11:47:04.600Z,2.80
2023-05-20T11:49:40.905Z,3.65
2023-05-20T11:52:11.049Z,3.40
2023-05-20T11:54:40.147Z,3.22
2023-05-20T11:57:08.433Z,3.47
2023-05-20T11:59:36.544Z,3.15
2023-05-20T12:02:04.214Z,3.33
2023-05-20T12:04:32.009Z,3.70
2023-05-20T12:06:59.670Z,2.85
2023-05-20T12:09:27.474Z,3.17
2023-05-20T12:11:57.093Z,3.50
2023-05-20T12:14:24.785Z,3.05
2023-05-20T12:16:53.698Z,3.45
2023-05-20T12:19:21.456Z,3.50
2023-05-20T12:21:49.239Z,3.22
2023-05-20T12:24:16.830Z,3.50
2023-05-20T12:26:44.481Z,3.70
2023-05-20T12:29:13.599Z,3.78
2023-05-20T12:31:41.366Z,3.10
2023-05-20T12:34:09.002Z,3.42
2023-05-20T12:36:37.735Z,3.22
2023-05-20T12:39:06.068Z,3.38
2023-05-20T12:41:33.759Z,3.90
2023-05-20T12:44:01.476Z,3.65
2023-05-20T12:46:30.743Z,3.20
2023-05-20T12:48:58.705Z,3.80
2023-05-20T12:51:26.462Z,3.83
2023-05-20T12:53:54.160Z,3.20
2023-05-20T12:56:22.188Z,3.38
2023-05-20T12:58:49.867Z,3.83
2023-05-20T13:01:17.543Z,6.60
2023-05-20T13:03:47.896Z,4.10
2023-05-20T13:06:15.586Z,3.67
2023-05-20T13:08:43.352Z,3.50
2023-05-20T13:11:10.960Z,4.47
2023-05-20T13:13:38.576Z,5.72
2023-05-20T13:16:06.554Z,7.95
2023-05-20T13:18:34.112Z,3.53
2023-05-20T13:21:03.020Z,6.47
2023-05-20T13:23:30.587Z,3.17
2023-05-20T13:25:58.315Z,3.28
2023-05-20T13:28:25.955Z,5.68
2023-05-20T13:30:53.583Z,4.72
2023-05-20T13:33:23.012Z,4.00
2023-05-20T13:35:50.754Z,4.88
2023-05-20T13:38:19.710Z,4.35
2023-05-20T13:40:47.268Z,3.60
2023-05-20T13:43:14.836Z,3.67
2023-05-20T13:45:43.529Z,3.30
2023-05-20T13:48:11.207Z,3.45
2023-05-20T13:50:38.943Z,3.53
2023-05-20T13:53:06.726Z,3.85
2023-05-20T13:55:36.386Z,3.70
2023-05-20T13:58:05.461Z,3.75
2023-05-20T14:00:33.206Z,2.97
2023-05-20T14:03:01.038Z,3.78
2023-05-20T14:05:28.782Z,3.40
2023-05-20T14:07:56.420Z,3.55
2023-05-20T14:10:24.138Z,4.03
2023-05-20T14:12:54.160Z,3.90
2023-05-20T14:15:21.868Z,3.63
2023-05-20T14:17:49.593Z,3.10
2023-05-20T14:20:17.533Z,3.38
2023-05-20T14:22:45.148Z,3.70
2023-05-20T14:25:12.797Z,5.30
2023-05-20T14:27:40.490Z,3.97
2023-05-20T14:30:10.853Z,3.70
2023-05-20T14:32:38.454Z,3.60
2023-05-20T14:35:07.000Z,3.38
2023-05-20T14:37:34.576Z,3.42
2023-05-20T14:40:02.767Z,3.22
2023-05-20T14:42:30.377Z,3.35
2023-05-20T14:44:57.999Z,4.15
2023-05-20T14:47:27.062Z,3.50
2023-05-20T14:49:54.766Z,3.45
2023-05-20T14:52:22.490Z,3.08
2023-05-20T14:54:50.148Z,3.47
2023-05-20T14:57:17.902Z,3.42
2023-05-20T14:59:45.853Z,3.17
2023-05-20T15:02:15.529Z,3.13
2023-05-20T15:04:46.644Z,3.20
2023-05-20T15:07:14.639Z,3.25
2023-05-20T15:09:42.528Z,3.30
2023-05-20T15:12:10.664Z,3.40
2023-05-20T15:14:38.420Z,3.80
2023-05-20T15:17:06.158Z,3.30
2023-05-20T15:19:33.961Z,3.72
2023-05-20T15:22:03.264Z,3.67
2023-05-20T15:24:31.070Z,3.42
2023-05-20T15:26:58.717Z,3.60
2023-05-20T15:29:26.407Z,3.58
2023-05-20T15:31:54.053Z,3.10
2023-05-20T15:34:21.661Z,3.58
2023-05-20T15:36:49.285Z,3.90
2023-05-20T15:39:18.346Z,4.20
2023-05-20T15:41:47.921Z,4.20
2023-05-20T15:44:15.615Z,3.90
2023-05-20T15:46:44.700Z,3.60
2023-05-20T15:49:12.802Z,4.20
2023-05-20T15:51:41.087Z,3.88
2023-05-20T15:54:12.160Z,3.63
2023-05-20T15:56:41.212Z,4.07
2023-05-20T15:59:08.837Z,4.13
2023-05-20T16:01:37.977Z,4.28
2023-05-20T16:04:06.841Z,4.70
2023-05-20T16:06:35.661Z,4.30
2023-05-20T16:09:03.750Z,4.20
2023-05-20T16:11:32.681Z,3.88
2023-05-20T16:14:01.661Z,3.72
2023-05-20T16:16:29.281Z,3.85
2023-05-20T16:18:58.793Z,3.78
2023-05-20T16:21:26.668Z,4.28
2023-05-20T16:23:54.241Z,3.75
2023-05-20T16:26:22.564Z,6.32
2023-05-20T16:28:50.269Z,4.18
2023-05-20T16:31:19.498Z,4.45
2023-05-20T16:33:47.241Z,3.70
2023-05-20T16:36:14.855Z,4.22
2023-05-20T16:38:42.396Z,4.20
2023-05-20T16:41:10.041Z,3.95
2023-05-20T16:43:37.758Z,3.78
2023-05-20T16:46:05.633Z,3.90
2023-05-20T16:48:34.933Z,3.83
2023-05-20T16:51:02.672Z,4.10
2023-05-20T16:53:30.275Z,4.00
2023-05-20T16:55:57.900Z,3.95
2023-05-20T16:58:25.592Z,4.10
2023-05-20T17:00:53.605Z,4.93
2023-05-20T17:03:21.424Z,4.65
2023-05-20T17:05:50.441Z,4.53
2023-05-20T17:08:18.177Z,4.43
2023-05-20T17:10:45.807Z,4.30
2023-05-20T17:13:13.374Z,4.07
2023-05-20T17:15:40.988Z,4.05
2023-05-20T17:18:08.637Z,4.60
2023-05-20T17:20:36.355Z,4.18
2023-05-20T17:23:05.416Z,4.50
2023-05-20T17:25:33.051Z,4.22
2023-05-20T17:28:01.047Z,4.28
2023-05-20T17:30:28.698Z,4.35
2023-05-20T17:32:57.236Z,4.57
2023-05-20T17:35:25.571Z,4.57
2023-05-20T17:37:53.657Z,5.32
2023-05-20T17:40:22.601Z,4.95
2023-05-20T17:42:50.472Z,5.30
2023-05-20T17:45:18.126Z,4.82
2023-05-20T17:47:45.918Z,6.93
2023-05-20T17:50:14.627Z,6.40
2023-05-20T17:52:42.211Z,5.05
2023-05-20T17:55:10.358Z,5.03
2023-05-20T17:57:39.366Z,5.07
2023-05-20T18:00:09.170Z,4.75
2023-05-20T18:02:38.403Z,5.00
2023-05-20T18:05:06.839Z,5.10
2023-05-20T18:07:36.004Z,5.35
2023-05-20T18:10:05.527Z,6.90
2023-05-20T18:12:33.106Z,5.68
2023-05-20T18:15:02.110Z,5.00
2023-05-20T18:17:29.813Z,4.80
2023-05-20T18:19:57.429Z,5.22
2023-05-20T18:22:25.962Z,5.80
2023-05-20T18:24:53.628Z,6.18
2023-05-20T18:27:21.336Z,6.43
2023-05-20T18:29:50.009Z,7.15
2023-05-20T18:32:19.045Z,5.72
2023-05-20T18:34:46.661Z,5.60
2023-05-20T18:37:14.220Z,5.90
2023-05-20T18:39:41.860Z,5.53
2023-05-20T18:42:09.683Z,6.35
2023-05-20T18:44:37.411Z,5.70
2023-05-20T18:47:05.358Z,6.03
2023-05-20T18:49:34.278Z,5.82
2023-05-20T18:52:01.922Z,6.60
2023-05-20T18:54:29.630Z,6.55
2023-05-20T18:56:57.312Z,6.30
2023-05-20T18:59:25.222Z,6.60
2023-05-20T19:01:52.998Z,6.10
2023-05-20T19:04:20.683Z,6.22
2023-05-20T19:06:49.884Z,6.28
2023-05-20T19:09:17.530Z,5.55
2023-05-20T19:11:45.089Z,6.55
2023-05-20T19:14:12.760Z,6.68
2023-05-20T19:16:40.673Z,6.43
2023-05-20T19:19:08.369Z,7.03
2023-05-20T19:21:36.494Z,6.85
2023-05-20T19:24:06.558Z,6.30
2023-05-20T19:26:34.394Z,6.97
2023-05-20T19:29:02.015Z,7.28
2023-05-20T19:31:29.715Z,7.40
2023-05-20T19:33:57.472Z,6.93
2023-05-20T19:36:25.155Z,7.90
2023-05-20T19:38:52.799Z,7.18
2023-05-20T19:41:22.537Z,6.13
2023-05-20T19:43:50.139Z,7.10
2023-05-20T19:46:17.860Z,7.00
2023-05-20T19:48:45.626Z,6.70
2023-05-20T19:51:13.289Z,7.68
2023-05-20T19:53:40.913Z,7.72
2023-05-20T19:56:08.803Z,7.88
2023-05-20T19:58:37.829Z,7.75
2023-05-20T20:01:06.583Z,7.57
2023-05-20T20:03:34.293Z,7.38
2023-05-20T20:06:02.277Z,7.05
2023-05-20T20:08:30.036Z,8.02
2023-05-20T20:10:57.665Z,9.93
2023-05-20T20:13:25.617Z,9.35
2023-05-20T20:15:54.599Z,8.30
2023-05-20T20:18:22.193Z,7.45
2023-05-20T20:20:49.965Z,7.35
2023-05-20T20:23:17.817Z,7.30
2023-05-20T20:25:47.911Z,7.05
2023-05-20T20:28:15.787Z,7.18
2023-05-20T20:30:43.410Z,7.00
2023-05-20T20:33:13.205Z,8.05
2023-05-20T20:35:41.088Z,8.07
2023-05-20T20:38:09.857Z,7.40
2023-05-20T20:40:41.473Z,8.45
2023-05-20T20:43:10.872Z,8.52
2023-05-20T20:45:38.563Z,7.75
2023-05-20T20:48:07.542Z,8.23
2023-05-20T20:50:36.916Z,7.60
2023-05-20T20:53:04.513Z,7.72
2023-05-20T20:55:32.110Z,8.23
2023-05-20T20:58:02.713Z,8.88
2023-05-20T21:00:30.489Z,8.15
2023-05-20T21:02:58.161Z,7.80
2023-05-20T21:05:26.660Z,8.27
2023-05-20T21:07:58.382Z,7.38
2023-05-20T21:10:29.038Z,8.07
2023-05-20T21:12:57.042Z,8.82
2023-05-20T21:15:25.173Z,8.60
2023-05-20T21:17:53.305Z,9.52
2023-05-20T21:20:21.871Z,9.32
2023-05-20T21:22:49.645Z,8.82
2023-05-20T21:25:18.859Z,8.05
2023-05-20T21:27:46.521Z,7.85
2023-05-20T21:30:15.710Z,8.10
2023-05-20T21:32:43.331Z,8.18
2023-05-20T21:35:11.078Z,8.68
2023-05-20T21:37:38.725Z,8.15
2023-05-20T21:40:07.893Z,7.82
2023-05-20T21:42:36.825Z,8.68
2023-05-20T21:45:05.141Z,9.07
2023-05-20T21:47:32.731Z,8.48
2023-05-20T21:50:00.493Z,7.97
2023-05-20T21:52:28.128Z,8.07
2023-05-20T21:54:55.910Z,8.70
2023-05-20T21:57:23.511Z,8.40
2023-05-20T21:59:52.462Z,9.13
2023-05-20T22:02:20.141Z,9.02
2023-05-20T22:04:49.191Z,8.38
2023-05-20T22:07:16.888Z,8.38
2023-05-20T22:09:44.533Z,8.75
2023-05-20T22:12:15.507Z,8.80
2023-05-20T22:14:43.198Z,8.95
2023-05-20T22:17:12.644Z,8.82
2023-05-20T22:19:41.404Z,8.48
2023-05-20T22:22:09.008Z,8.57
2023-05-20T22:24:36.624Z,8.50
2023-05-20T22:27:04.892Z,8.75
2023-05-20T22:33:46.284Z,8.35
2023-05-20T22:36:13.863Z,8.73
2023-05-20T22:38:41.592Z,8.88
2023-05-20T22:41:09.316Z,9.07
2023-05-20T22:43:36.892Z,9.02
2023-05-20T22:46:04.512Z,8.80
2023-05-20T22:48:32.134Z,8.57
2023-05-20T22:51:03.724Z,9.13
2023-05-20T22:53:31.407Z,9.05
2023-05-20T22:55:59.738Z,9.40
2023-05-20T22:58:29.590Z,9.55
2023-05-20T23:00:59.507Z,8.82
2023-05-20T23:03:27.160Z,10.55
2023-05-20T23:05:54.756Z,10.43
2023-05-20T23:08:23.665Z,9.43
2023-05-20T23:10:51.530Z,9.98
2023-05-20T23:13:19.242Z,9.15
2023-05-20T23:15:47.897Z,9.50
2023-05-20T23:18:15.718Z,9.68
2023-05-20T23:20:43.377Z,8.85
2023-05-20T23:23:11.827Z,10.15
2023-05-20T23:25:42.379Z,9.43
2023-05-20T23:28:11.259Z,10.32
2023-05-20T23:30:38.817Z,9.70
2023-05-20T23:33:06.538Z,9.27
2023-05-20T23:35:34.397Z,9.63
2023-05-20T23:38:02.196Z,9.85
2023-05-20T23:40:29.726Z,10.32
2023-05-20T23:42:58.725Z,9.95
2023-05-20T23:45:26.309Z,9.27
2023-05-20T23:47:55.435Z,10.30
2023-05-20T23:50:23.220Z,9.70
2023-05-20T23:52:50.890Z,9.65
2023-05-20T23:55:19.243Z,10.40
2023-05-20T23:57:46.787Z,10.07
